Time;durP1;ratioP1;P1;durP2;ratioP2;P2;SDS_P1;SDS_P2;PMS_P1;PMS_P2;Temp;Humidity;BMP_temperature;BMP_pressure;BME280_temperature;BME280_humidity;BME280_pressure;Samples;Min_cycle;Max_cycle;Signal;HPM_P1;HPM_P2
2021/08/10 00:00:06;;;;;;;3.97;2.97;;;17.80;98.10;;;;;;5001218;28;20069;-80
2021/08/10 00:02:50;;;;;;;4.95;3.00;;;17.70;98.20;;;;;;5001418;28;20129;-80
2021/08/10 00:05:34;;;;;;;4.10;3.08;;;17.80;98.30;;;;;;5006767;28;20121;-80
2021/08/10 00:08:20;;;;;;;4.20;2.75;;;17.70;98.30;;;;;;5014184;28;20037;-80
2021/08/10 00:11:06;;;;;;;4.43;3.05;;;17.70;98.30;;;;;;5012892;28;20044;-79
2021/08/10 00:13:50;;;;;;;5.47;3.10;;;17.70;98.40;;;;;;5014046;28;20045;-79
2021/08/10 00:16:34;;;;;;;5.70;3.10;;;17.70;98.40;;;;;;5021803;28;20498;-79
2021/08/10 00:19:18;;;;;;;4.63;3.00;;;17.70;98.30;;;;;;5028668;28;20037;-79
2021/08/10 00:22:03;;;;;;;4.65;2.95;;;17.70;98.40;;;;;;5031560;28;20036;-79
2021/08/10 00:24:47;;;;;;;4.10;2.80;;;17.70;98.40;;;;;;5027599;28;20088;-75
2021/08/10 00:27:31;;;;;;;6.83;3.37;;;17.60;98.40;;;;;;5016433;28;20117;-77
2021/08/10 00:30:15;;;;;;;6.45;3.65;;;17.60;98.50;;;;;;4998028;28;20331;-77
2021/08/10 00:32:59;;;;;;;5.15;3.25;;;17.60;98.50;;;;;;5012521;28;20119;-72
2021/08/10 00:35:43;;;;;;;4.90;3.58;;;17.60;98.50;;;;;;5013473;28;20394;-79
2021/08/10 00:38:27;;;;;;;4.22;2.88;;;17.60;98.50;;;;;;5012330;28;20049;-79
2021/08/10 00:41:11;;;;;;;5.38;3.00;;;17.60;98.50;;;;;;5020717;28;20489;-81
2021/08/10 00:43:55;;;;;;;4.10;2.58;;;17.60;98.50;;;;;;5028581;28;20072;-80
2021/08/10 00:46:39;;;;;;;3.88;3.13;;;17.60;98.60;;;;;;5006021;28;20086;-78
2021/08/10 00:49:23;;;;;;;4.40;3.50;;;17.50;98.60;;;;;;5013105;28;20402;-77
2021/08/10 00:52:08;;;;;;;6.47;3.47;;;17.50;98.60;;;;;;5006940;28;20048;-78
2021/08/10 00:54:52;;;;;;;6.13;3.83;;;17.50;98.60;;;;;;5009653;28;20173;-78
2021/08/10 00:57:36;;;;;;;5.55;3.05;;;17.50;98.60;;;;;;5010179;28;20056;-81
2021/08/10 01:00:20;;;;;;;4.68;3.25;;;17.50;98.70;;;;;;5012042;28;20049;-84
2021/08/10 01:03:05;;;;;;;5.15;3.17;;;17.50;98.70;;;;;;5013222;28;20096;-82
2021/08/10 01:05:50;;;;;;;4.60;3.13;;;17.50;98.70;;;;;;5011498;28;20547;-82
2021/08/10 01:08:48;;;;;;;4.93;3.03;;;17.50;98.70;;;;;;5012370;28;20481;-81
2021/08/10 01:11:50;;;;;;;3.90;3.20;;;17.50;98.70;;;;;;5009869;28;20651;-82
2021/08/10 01:14:59;;;;;;;5.25;3.60;;;17.50;98.70;;;;;;5003049;28;20076;-83
2021/08/10 01:18:15;;;;;;;4.63;3.00;;;17.50;98.70;;;;;;4993308;28;20038;-83
2021/08/10 01:21:32;;;;;;;5.35;2.85;;;17.40;98.60;;;;;;5003445;28;20033;-83
2021/08/10 01:24:26;;;;;;;3.67;2.70;;;17.40;98.60;;;;;;5013263;28;20030;-83
2021/08/10 01:27:46;;;;;;;5.43;3.30;;;17.40;98.70;;;;;;5000484;28;20714;-83
2021/08/10 01:30:41;;;;;;;7.55;3.08;;;17.40;98.60;;;;;;5010837;28;20026;-83
2021/08/10 01:33:29;;;;;;;6.32;3.00;;;17.40;98.70;;;;;;5012151;28;20407;-82
2021/08/10 01:36:19;;;;;;;4.95;3.13;;;17.30;98.70;;;;;;5011186;28;20398;-82
2021/08/10 01:39:06;;;;;;;4.40;3.17;;;17.40;98.70;;;;;;4992255;28;20499;-83
2021/08/10 01:41:52;;;;;;;5.38;3.58;;;17.40;98.70;;;;;;5007371;28;20437;-83
2021/08/10 01:44:39;;;;;;;4.45;2.97;;;17.30;98.70;;;;;;5010633;28;20105;-82
2021/08/10 01:47:26;;;;;;;4.90;3.22;;;17.30;98.80;;;;;;5011319;28;20030;-78
2021/08/10 01:50:13;;;;;;;5.60;3.30;;;17.30;98.80;;;;;;5013116;28;20046;-78
2021/08/10 01:52:59;;;;;;;3.40;2.55;;;17.30;98.80;;;;;;5013180;28;20030;-77
2021/08/10 01:55:46;;;;;;;4.45;3.10;;;17.30;98.80;;;;;;5013623;28;20033;-77
2021/08/10 01:58:34;;;;;;;4.43;2.85;;;17.30;98.80;;;;;;5012417;28;20120;-77
2021/08/10 02:01:21;;;;;;;4.45;3.03;;;17.30;98.70;;;;;;5009280;28;20065;-78
2021/08/10 02:04:08;;;;;;;5.00;3.05;;;17.30;98.80;;;;;;5012123;28;20397;-78
2021/08/10 02:06:54;;;;;;;6.85;2.90;;;17.20;98.80;;;;;;5011066;28;20517;-78
2021/08/10 02:09:40;;;;;;;5.30;3.03;;;17.20;98.80;;;;;;4994119;28;20041;-78
2021/08/10 02:12:27;;;;;;;7.78;3.10;;;17.30;98.90;;;;;;5011529;28;20482;-78
2021/08/10 02:15:12;;;;;;;5.32;3.22;;;17.20;98.90;;;;;;5007538;28;20525;-78
2021/08/10 02:17:58;;;;;;;4.57;2.83;;;17.20;98.90;;;;;;4978136;28;20031;-77
2021/08/10 02:20:47;;;;;;;4.32;3.10;;;17.20;98.90;;;;;;5002491;28;20383;-77
2021/08/10 02:23:33;;;;;;;5.97;3.05;;;17.30;98.90;;;;;;5010331;28;20029;-77
2021/08/10 02:26:20;;;;;;;6.57;2.90;;;17.20;98.90;;;;;;5009756;28;20042;-77
2021/08/10 02:29:06;;;;;;;3.95;2.90;;;17.20;98.90;;;;;;5010377;28;20026;-77
2021/08/10 02:31:52;;;;;;;7.05;3.38;;;17.20;98.90;;;;;;5010033;28;20033;-77
2021/08/10 02:34:42;;;;;;;5.95;3.88;;;17.20;98.90;;;;;;5009853;28;20061;-77
2021/08/10 02:37:31;;;;;;;4.82;3.35;;;17.20;98.90;;;;;;5012190;28;20030;-78
2021/08/10 02:40:18;;;;;;;4.53;3.25;;;17.20;99.00;;;;;;4997468;28;20095;-77
2021/08/10 02:43:06;;;;;;;5.40;3.63;;;17.20;99.00;;;;;;5010859;28;20037;-79
2021/08/10 02:45:52;;;;;;;6.07;3.28;;;17.20;99.00;;;;;;5009218;28;20448;-79
2021/08/10 02:48:38;;;;;;;6.63;3.55;;;17.20;99.10;;;;;;5010137;28;20057;-79
2021/08/10 02:51:25;;;;;;;7.25;3.80;;;17.20;99.00;;;;;;4995868;28;20038;-78
2021/08/10 02:54:12;;;;;;;5.50;3.47;;;17.30;99.00;;;;;;5011841;28;20042;-79
2021/08/10 02:57:09;;;;;;;5.28;3.60;;;17.20;99.00;;;;;;4993933;28;20027;-80
2021/08/10 03:00:07;;;;;;;4.95;3.42;;;17.30;99.00;;;;;;5010792;28;20394;-80
2021/08/10 03:03:05;;;;;;;5.90;3.25;;;17.20;99.00;;;;;;5009461;28;20026;-80
2021/08/10 03:05:55;;;;;;;5.35;3.88;;;17.20;99.00;;;;;;5007270;28;20049;-74
2021/08/10 03:08:47;;;;;;;6.93;3.83;;;17.20;99.00;;;;;;5010266;28;20034;-76
2021/08/10 03:11:39;;;;;;;5.05;3.28;;;17.20;99.00;;;;;;5008493;28;20088;-76
2021/08/10 03:14:26;;;;;;;6.32;3.70;;;17.20;98.90;;;;;;5012279;28;20116;-76
2021/08/10 03:17:12;;;;;;;5.57;3.65;;;17.10;98.90;;;;;;5009276;28;20033;-76
2021/08/10 03:20:00;;;;;;;5.20;3.30;;;17.20;98.90;;;;;;5012666;28;20022;-76
2021/08/10 03:22:41;;;;;;;3.95;3.25;;;17.10;98.90;;;;;;5005487;28;20390;-74
2021/08/10 03:25:26;;;;;;;5.35;3.65;;;17.10;98.90;;;;;;5014134;28;20036;-74
2021/08/10 03:28:14;;;;;;;5.38;3.90;;;17.10;99.00;;;;;;5014361;28;20461;-74
2021/08/10 03:31:00;;;;;;;5.82;3.67;;;17.00;99.00;;;;;;5011783;28;20106;-74
2021/08/10 03:33:46;;;;;;;5.43;3.95;;;17.00;99.00;;;;;;5014495;28;20072;-75
2021/08/10 03:36:30;;;;;;;5.47;3.45;;;17.00;99.00;;;;;;4997313;28;20105;-75
2021/08/10 03:39:16;;;;;;;4.43;3.10;;;17.00;99.10;;;;;;4995068;28;20041;-75
2021/08/10 03:42:01;;;;;;;5.15;3.33;;;17.00;99.10;;;;;;4994583;28;20272;-81
2021/08/10 03:44:46;;;;;;;5.53;3.40;;;17.00;99.10;;;;;;4997320;28;20268;-80
2021/08/10 03:47:32;;;;;;;5.72;4.20;;;17.00;99.00;;;;;;5015375;28;20552;-81
2021/08/10 03:50:18;;;;;;;5.97;3.67;;;17.00;99.10;;;;;;5012320;28;20107;-80
2021/08/10 03:53:02;;;;;;;5.15;3.65;;;17.00;99.10;;;;;;5011128;28;20036;-81
2021/08/10 03:55:48;;;;;;;4.30;3.35;;;17.00;99.10;;;;;;5012476;28;20060;-75
2021/08/10 03:58:34;;;;;;;7.05;3.60;;;17.00;99.00;;;;;;5013795;28;20037;-75
2021/08/10 04:01:20;;;;;;;5.60;3.58;;;17.00;99.10;;;;;;5012067;28;20040;-75
2021/08/10 04:04:06;;;;;;;5.05;3.95;;;17.00;99.10;;;;;;5013568;28;20041;-75
2021/08/10 04:06:51;;;;;;;8.68;4.13;;;17.00;99.10;;;;;;5013059;28;20044;-75
2021/08/10 04:09:37;;;;;;;8.50;4.90;;;17.00;99.00;;;;;;5012361;28;20036;-75
2021/08/10 04:12:21;;;;;;;4.75;3.83;;;17.00;99.00;;;;;;4994631;28;20041;-75
2021/08/10 04:15:06;;;;;;;6.38;3.80;;;17.00;99.00;;;;;;5011655;28;20065;-75
2021/08/10 04:17:51;;;;;;;7.72;4.32;;;17.00;99.00;;;;;;4998155;28;20041;-75
2021/08/10 04:20:35;;;;;;;5.35;3.90;;;17.00;99.00;;;;;;5008299;28;20072;-75
2021/08/10 04:23:21;;;;;;;4.50;3.75;;;17.00;99.00;;;;;;5013814;28;20040;-75
2021/08/10 04:26:05;;;;;;;6.00;4.03;;;17.00;99.10;;;;;;5010710;28;20029;-74
2021/08/10 04:28:49;;;;;;;6.43;4.50;;;17.00;99.10;;;;;;5013352;28;20087;-74
2021/08/10 04:31:33;;;;;;;7.97;4.65;;;17.00;99.10;;;;;;5011486;28;20044;-73
2021/08/10 04:34:17;;;;;;;6.03;3.80;;;17.00;99.10;;;;;;5012927;28;20100;-76
2021/08/10 04:37:03;;;;;;;7.87;5.30;;;17.00;99.10;;;;;;5018346;28;20072;-77
2021/08/10 04:39:47;;;;;;;7.55;5.32;;;17.00;99.00;;;;;;5013490;28;20301;-77
2021/08/10 04:42:34;;;;;;;7.47;4.05;;;17.00;99.10;;;;;;5014560;28;20061;-77
2021/08/10 04:45:17;;;;;;;5.95;4.20;;;17.10;99.00;;;;;;5011388;28;20040;-77
2021/08/10 04:48:01;;;;;;;7.05;4.05;;;17.10;99.10;;;;;;5012497;28;20390;-77
2021/08/10 04:50:45;;;;;;;5.10;4.15;;;17.10;99.00;;;;;;5001144;28;20045;-77
2021/08/10 04:53:29;;;;;;;6.13;4.03;;;17.10;99.00;;;;;;4994796;28;20045;-77
2021/08/10 04:56:14;;;;;;;5.85;3.95;;;17.20;99.00;;;;;;4995844;28;20088;-77
2021/08/10 04:58:58;;;;;;;4.97;3.45;;;17.20;99.00;;;;;;4978669;28;20156;-77
2021/08/10 05:01:44;;;;;;;4.60;4.03;;;17.20;99.00;;;;;;4995729;28;20449;-77
2021/08/10 05:04:28;;;;;;;7.28;3.72;;;17.30;99.10;;;;;;5011377;28;20117;-78
2021/08/10 05:07:13;;;;;;;5.27;3.33;;;17.30;99.10;;;;;;4993984;28;20034;-78
2021/08/10 05:09:57;;;;;;;6.10;3.47;;;17.30;99.20;;;;;;4996929;28;20041;-77
2021/08/10 05:12:41;;;;;;;7.60;3.63;;;17.30;99.20;;;;;;5012619;28;20045;-77
2021/08/10 05:15:25;;;;;;;5.50;3.60;;;17.40;99.00;;;;;;5009691;28;20056;-77
2021/08/10 05:18:09;;;;;;;5.43;3.43;;;17.40;98.90;;;;;;5018802;28;20092;-77
2021/08/10 05:20:53;;;;;;;5.00;3.85;;;17.40;98.90;;;;;;5010857;28;20036;-77
2021/08/10 05:23:20;;;;;;;7.13;4.18;;;17.50;98.80;;;;;;5013439;28;20045;-77
2021/08/10 05:26:04;;;;;;;7.32;3.85;;;17.50;98.80;;;;;;5006133;28;20028;-77
2021/08/10 05:28:50;;;;;;;8.75;4.03;;;17.50;98.80;;;;;;5018876;28;20041;-76
2021/08/10 05:31:36;;;;;;;5.25;3.58;;;17.50;98.70;;;;;;5013974;28;20022;-82
2021/08/10 05:34:22;;;;;;;5.10;3.88;;;17.60;98.70;;;;;;5010390;28;20046;-80
2021/08/10 05:37:08;;;;;;;5.68;3.67;;;17.60;98.70;;;;;;4994984;28;20535;-81
2021/08/10 05:39:54;;;;;;;5.90;4.15;;;17.70;98.70;;;;;;4998395;28;20037;-81
2021/08/10 05:42:39;;;;;;;5.95;3.45;;;17.70;98.60;;;;;;5013480;28;20520;-84
2021/08/10 05:45:25;;;;;;;5.78;4.00;;;17.80;98.70;;;;;;5009310;28;20026;-75
2021/08/10 05:48:11;;;;;;;6.80;3.35;;;17.80;98.70;;;;;;5011938;28;20034;-75
2021/08/10 05:50:59;;;;;;;4.82;3.20;;;17.80;98.70;;;;;;4985219;28;20549;-77
2021/08/10 05:53:45;;;;;;;4.72;3.58;;;17.90;98.60;;;;;;4987676;28;20130;-77
2021/08/10 05:56:30;;;;;;;6.85;3.25;;;18.00;98.50;;;;;;4974753;28;20402;-75
2021/08/10 05:59:16;;;;;;;5.95;3.47;;;18.00;98.60;;;;;;4983995;28;20041;-77
2021/08/10 06:02:03;;;;;;;6.50;3.20;;;18.00;98.50;;;;;;4986611;28;20022;-75
2021/08/10 06:04:49;;;;;;;7.75;3.83;;;18.10;98.50;;;;;;4981511;28;20062;-75
2021/08/10 06:07:35;;;;;;;7.65;4.65;;;18.10;98.40;;;;;;4987730;28;20093;-73
2021/08/10 06:10:21;;;;;;;9.38;3.80;;;18.20;98.40;;;;;;4979083;28;20058;-76
2021/08/10 06:13:07;;;;;;;9.98;4.50;;;18.20;98.40;;;;;;4983661;28;20046;-74
2021/08/10 06:15:54;;;;;;;9.35;3.97;;;18.30;98.40;;;;;;4980830;28;20026;-74
2021/08/10 06:18:40;;;;;;;6.03;4.07;;;18.30;98.50;;;;;;4989822;28;20081;-74
2021/08/10 06:21:26;;;;;;;9.93;3.55;;;18.40;98.30;;;;;;4984677;28;20399;-74
2021/08/10 06:24:12;;;;;;;6.80;3.78;;;18.50;98.30;;;;;;4988927;28;20030;-74
2021/08/10 06:26:57;;;;;;;7.47;3.95;;;18.50;98.20;;;;;;4986248;28;20541;-76
2021/08/10 06:29:43;;;;;;;5.05;3.63;;;18.60;98.10;;;;;;4985774;28;20030;-75
2021/08/10 06:32:29;;;;;;;4.97;3.75;;;18.70;98.10;;;;;;4978502;28;20084;-75
2021/08/10 06:35:15;;;;;;;7.63;4.47;;;18.80;98.00;;;;;;4986520;28;20118;-75
2021/08/10 06:38:01;;;;;;;5.10;3.13;;;19.00;98.30;;;;;;4986666;28;20041;-75
2021/08/10 06:40:47;;;;;;;4.95;3.25;;;19.10;98.20;;;;;;4981643;28;20066;-75
2021/08/10 06:43:33;;;;;;;5.80;4.20;;;19.10;98.00;;;;;;4986359;28;20102;-76
2021/08/10 06:46:19;;;;;;;6.65;3.38;;;19.20;97.70;;;;;;4984944;28;20038;-76
2021/08/10 06:49:05;;;;;;;5.32;3.35;;;19.30;97.50;;;;;;4998142;28;20053;-76
2021/08/10 06:51:51;;;;;;;7.85;3.40;;;19.40;97.40;;;;;;5005761;28;20101;-75
2021/08/10 06:54:37;;;;;;;4.75;2.95;;;19.50;97.30;;;;;;5006525;28;20026;-75
2021/08/10 06:57:23;;;;;;;4.72;3.72;;;19.60;97.40;;;;;;5009281;28;20044;-75
2021/08/10 07:00:09;;;;;;;7.30;3.40;;;19.80;97.40;;;;;;5010941;28;20104;-75
2021/08/10 07:02:55;;;;;;;5.85;3.25;;;20.00;97.20;;;;;;5012439;28;20036;-75
2021/08/10 07:05:41;;;;;;;5.45;2.80;;;20.20;96.90;;;;;;5013674;28;20026;-76
2021/08/10 07:08:26;;;;;;;7.45;2.83;;;20.30;96.80;;;;;;5010571;28;20520;-76
2021/08/10 07:11:12;;;;;;;3.50;2.80;;;20.50;96.70;;;;;;5010993;28;20046;-76
2021/08/10 07:13:58;;;;;;;5.60;3.15;;;20.60;96.60;;;;;;5003978;28;20049;-76
2021/08/10 07:16:45;;;;;;;3.35;2.70;;;20.70;96.00;;;;;;5001609;28;20031;-76
2021/08/10 07:19:31;;;;;;;6.50;3.20;;;20.90;96.10;;;;;;5008423;28;20034;-76
2021/08/10 07:22:17;;;;;;;5.43;2.42;;;21.00;95.90;;;;;;5000676;28;20383;-75
2021/08/10 07:25:01;;;;;;;5.82;3.17;;;21.10;95.90;;;;;;5004889;28;20548;-76
2021/08/10 07:27:46;;;;;;;3.50;2.72;;;21.20;95.80;;;;;;5009082;28;20037;-75
2021/08/10 07:30:30;;;;;;;8.25;3.28;;;21.30;95.70;;;;;;5001906;28;20394;-75
2021/08/10 07:33:14;;;;;;;6.80;3.22;;;21.30;95.50;;;;;;5010204;28;20104;-75
2021/08/10 07:35:58;;;;;;;4.67;2.90;;;21.40;95.40;;;;;;5002650;28;20041;-75
2021/08/10 07:38:44;;;;;;;4.70;2.30;;;21.40;95.30;;;;;;5011041;28;20346;-75
2021/08/10 07:41:28;;;;;;;;;;;21.50;94.90;;;;;;5009329;28;20403;-75
2021/08/10 07:44:12;;;;;;;4.88;2.97;;;21.60;95.20;;;;;;5011268;28;19916;-75
2021/08/10 07:46:56;;;;;;;4.23;2.33;;;21.60;94.90;;;;;;5002743;28;20120;-72
2021/08/10 07:49:40;;;;;;;4.70;2.50;;;21.70;94.80;;;;;;5008364;28;20303;-74
2021/08/10 07:52:24;;;;;;;7.27;2.83;;;21.80;95.00;;;;;;5009506;28;20386;-75
2021/08/10 07:55:09;;;;;;;3.78;2.47;;;21.80;94.50;;;;;;5003378;28;20359;-66
2021/08/10 07:57:53;;;;;;;;;;;21.90;93.10;;;;;;5004536;28;20120;-66
2021/08/10 08:00:38;;;;;;;5.90;2.75;;;22.10;92.00;;;;;;5006602;28;19916;-66
2021/08/10 08:03:23;;;;;;;9.65;2.95;;;22.20;93.30;;;;;;5008019;28;20072;-68
2021/08/10 08:06:07;;;;;;;5.25;3.13;;;22.30;93.30;;;;;;5006349;28;20466;-68
2021/08/10 08:08:51;;;;;;;7.40;3.60;;;22.40;91.70;;;;;;5007321;28;20116;-67
2021/08/10 08:11:35;;;;;;;10.00;4.88;;;22.40;91.50;;;;;;5002096;28;20358;-67
2021/08/10 08:14:20;;;;;;;6.10;3.08;;;22.40;92.40;;;;;;4999409;28;20504;-66
2021/08/10 08:17:04;;;;;;;4.60;3.28;;;22.40;91.90;;;;;;5006796;28;20088;-67
2021/08/10 08:19:48;;;;;;;7.03;3.13;;;22.50;92.20;;;;;;4995363;28;20085;-66
2021/08/10 08:22:33;;;;;;;5.80;3.22;;;22.50;92.50;;;;;;5010662;28;20632;-66
2021/08/10 08:25:17;;;;;;;5.13;3.67;;;22.60;92.10;;;;;;5003258;28;20084;-66
2021/08/10 08:28:03;;;;;;;6.82;2.88;;;22.60;92.10;;;;;;5003666;28;20663;-66
2021/08/10 08:30:47;;;;;;;5.45;2.75;;;22.60;92.10;;;;;;5002832;28;20044;-65
2021/08/10 08:33:31;;;;;;;4.38;2.63;;;22.50;91.60;;;;;;5002925;28;20040;-65
2021/08/10 08:36:15;;;;;;;9.35;2.80;;;22.60;91.10;;;;;;5005734;28;20041;-66
2021/08/10 08:38:59;;;;;;;5.22;2.63;;;22.60;91.20;;;;;;5010911;28;20040;-66
2021/08/10 08:41:44;;;;;;;6.03;2.83;;;22.60;90.70;;;;;;5009777;28;20512;-66
2021/08/10 08:44:34;;;;;;;4.13;2.30;;;22.70;90.40;;;;;;4978404;28;20045;-64
2021/08/10 08:47:22;;;;;;;23.25;4.38;;;22.80;90.10;;;;;;5010212;28;20563;-63
2021/08/10 08:50:09;;;;;;;26.92;4.53;;;22.80;89.30;;;;;;5006913;28;20062;-66
2021/08/10 08:52:54;;;;;;;7.20;3.13;;;22.90;89.60;;;;;;5012793;28;20033;-66
2021/08/10 08:55:42;;;;;;;4.88;3.03;;;23.00;89.50;;;;;;5016585;28;20072;-68
2021/08/10 08:58:26;;;;;;;7.72;2.72;;;23.00;90.30;;;;;;5007033;28;20033;-67
2021/08/10 09:01:14;;;;;;;4.93;2.58;;;23.10;90.20;;;;;;5010203;28;20041;-67
2021/08/10 09:03:58;;;;;;;5.40;2.70;;;23.10;90.40;;;;;;5014030;28;20088;-67
2021/08/10 09:06:42;;;;;;;4.25;2.35;;;23.20;89.60;;;;;;5009846;28;20134;-67
2021/08/10 09:09:28;;;;;;;8.93;3.60;;;23.20;88.30;;;;;;5006813;28;20161;-67
2021/08/10 09:12:17;;;;;;;6.10;2.80;;;23.20;89.20;;;;;;5001787;28;20061;-67
2021/08/10 09:15:01;;;;;;;3.55;2.20;;;23.30;89.00;;;;;;4999348;28;20069;-68
2021/08/10 09:17:47;;;;;;;6.03;2.88;;;23.30;87.70;;;;;;5008524;28;20029;-67
2021/08/10 09:20:31;;;;;;;5.05;2.60;;;23.40;88.40;;;;;;5008640;28;20045;-67
2021/08/10 09:23:15;;;;;;;5.70;3.03;;;23.30;88.30;;;;;;5001878;28;20046;-67
2021/08/10 09:25:59;;;;;;;4.65;2.67;;;23.30;88.10;;;;;;5005390;28;20188;-66
2021/08/10 09:28:46;;;;;;;12.93;2.85;;;23.40;87.20;;;;;;5010214;28;20032;-67
2021/08/10 09:31:48;;;;;;;6.47;2.53;;;23.40;87.80;;;;;;5007605;28;20030;-66
2021/08/10 09:34:33;;;;;;;5.10;2.30;;;23.40;85.60;;;;;;5009222;28;20101;-67
2021/08/10 09:37:19;;;;;;;5.25;2.92;;;23.30;85.90;;;;;;4992042;28;20542;-67
2021/08/10 09:40:26;;;;;;;5.32;2.60;;;23.30;86.20;;;;;;5003374;28;20041;-67
2021/08/10 09:43:24;;;;;;;9.38;3.00;;;23.30;84.20;;;;;;4995322;28;20029;-68
2021/08/10 09:46:22;;;;;;;5.15;3.03;;;23.40;84.90;;;;;;4997781;28;20061;-68
2021/08/10 09:49:08;;;;;;;5.70;3.17;;;23.40;86.10;;;;;;5006477;28;20049;-68
2021/08/10 09:51:54;;;;;;;4.45;3.20;;;23.50;86.40;;;;;;5009147;28;20030;-68
2021/08/10 09:54:43;;;;;;;5.93;2.70;;;23.50;85.80;;;;;;4993154;28;20051;-68
2021/08/10 09:57:29;;;;;;;6.65;3.38;;;23.60;85.70;;;;;;5002085;28;20030;-68
2021/08/10 10:00:39;;;;;;;6.40;2.47;;;23.70;85.10;;;;;;5007075;28;20065;-68
2021/08/10 10:03:27;;;;;;;4.53;2.78;;;23.80;83.40;;;;;;4994745;28;20113;-68
2021/08/10 10:06:13;;;;;;;4.75;3.13;;;23.90;85.80;;;;;;4999131;28;20085;-68
2021/08/10 10:08:58;;;;;;;8.27;3.53;;;24.10;86.00;;;;;;4998578;28;20480;-68
2021/08/10 10:11:47;;;;;;;5.55;2.92;;;24.10;85.40;;;;;;5009847;28;20030;-70
2021/08/10 10:14:33;;;;;;;3.97;2.53;;;24.20;84.90;;;;;;5008038;28;20049;-68
2021/08/10 10:17:19;;;;;;;5.25;3.03;;;24.30;83.80;;;;;;4991590;28;20110;-68
2021/08/10 10:20:05;;;;;;;5.45;2.60;;;24.30;84.20;;;;;;4996181;28;20026;-67
2021/08/10 10:22:52;;;;;;;5.35;2.60;;;24.40;82.50;;;;;;5009672;28;20034;-67
2021/08/10 10:25:37;;;;;;;5.88;3.03;;;24.40;83.70;;;;;;5012728;28;20045;-67
2021/08/10 10:28:23;;;;;;;4.50;2.40;;;24.40;80.50;;;;;;5012555;28;20053;-67
2021/08/10 10:31:09;;;;;;;4.32;2.78;;;24.30;81.90;;;;;;5007937;28;20105;-69
2021/08/10 10:33:56;;;;;;;5.95;2.75;;;24.30;81.20;;;;;;5011717;28;20037;-68
2021/08/10 10:36:44;;;;;;;3.90;2.63;;;24.10;80.50;;;;;;5007351;28;20045;-68
2021/08/10 10:39:32;;;;;;;4.05;2.13;;;24.10;81.40;;;;;;5006804;28;20033;-68
2021/08/10 10:42:18;;;;;;;5.80;2.42;;;24.00;79.60;;;;;;4992280;28;20076;-68
2021/08/10 10:45:04;;;;;;;4.65;2.25;;;23.90;81.30;;;;;;5009814;28;20034;-67
2021/08/10 10:47:51;;;;;;;5.70;2.53;;;24.00;80.90;;;;;;5012750;28;20030;-69
2021/08/10 10:51:03;;;;;;;5.60;2.20;;;24.00;81.90;;;;;;4994198;28;20049;-68
2021/08/10 10:53:50;;;;;;;5.35;3.08;;;24.10;79.50;;;;;;5007879;28;20038;-69
2021/08/10 10:56:35;;;;;;;6.38;3.42;;;24.10;79.60;;;;;;5010092;28;20026;-71
2021/08/10 10:59:52;;;;;;;7.53;2.63;;;24.00;80.10;;;;;;5013733;28;20662;-69
2021/08/10 11:02:39;;;;;;;3.83;2.55;;;24.00;79.90;;;;;;5005788;28;20030;-69
2021/08/10 11:05:26;;;;;;;8.00;2.72;;;24.10;81.00;;;;;;5007248;28;20092;-69
2021/08/10 11:08:36;;;;;;;6.60;2.70;;;24.10;81.00;;;;;;5008544;28;20398;-69
2021/08/10 11:11:50;;;;;;;5.00;2.80;;;24.00;78.90;;;;;;5010052;28;20099;-69
2021/08/10 11:14:38;;;;;;;5.28;2.47;;;24.00;77.70;;;;;;5009815;28;20112;-67
2021/08/10 11:17:24;;;;;;;5.00;2.33;;;24.00;77.90;;;;;;5017765;28;20116;-67
2021/08/10 11:20:26;;;;;;;3.85;2.40;;;24.00;78.80;;;;;;5014976;28;20049;-67
2021/08/10 11:23:25;;;;;;;5.75;2.65;;;23.90;77.30;;;;;;5005627;28;20093;-68
2021/08/10 11:25:53;;;;;;;4.90;2.40;;;24.00;77.60;;;;;;5006238;28;20037;-66
2021/08/10 11:28:31;;;;;;;4.63;2.50;;;24.00;77.90;;;;;;5010970;28;20140;-67
2021/08/10 11:31:04;;;;;;;5.20;3.03;;;24.20;78.00;;;;;;5006601;28;20048;-67
2021/08/10 11:33:31;;;;;;;4.13;2.40;;;24.20;76.90;;;;;;5006212;28;20375;-67
2021/08/10 11:36:12;;;;;;;5.60;2.47;;;24.20;77.50;;;;;;5003176;28;20021;-67
2021/08/10 11:38:43;;;;;;;4.82;2.83;;;24.20;77.40;;;;;;4989371;28;20069;-67
2021/08/10 11:41:10;;;;;;;5.32;2.78;;;24.30;78.10;;;;;;4989738;28;20041;-68
2021/08/10 11:43:37;;;;;;;3.65;2.40;;;24.30;77.70;;;;;;4989526;28;20117;-69
2021/08/10 11:46:05;;;;;;;8.13;4.22;;;24.40;77.00;;;;;;5005433;28;20022;-67
2021/08/10 11:48:54;;;;;;;8.20;3.63;;;24.50;78.40;;;;;;5015325;28;20040;-68
2021/08/10 11:51:34;;;;;;;6.00;2.90;;;24.60;77.00;;;;;;5007287;28;20128;-66
2021/08/10 11:54:07;;;;;;;4.82;3.17;;;24.60;76.80;;;;;;5012475;28;20034;-67
2021/08/10 11:56:35;;;;;;;5.68;2.60;;;24.60;77.10;;;;;;5012473;28;20030;-67
2021/08/10 11:59:05;;;;;;;6.05;3.08;;;24.70;76.50;;;;;;5010641;28;20037;-67
2021/08/10 12:01:34;;;;;;;3.88;2.35;;;24.70;76.90;;;;;;5010466;28;20087;-66
2021/08/10 12:04:29;;;;;;;5.43;2.58;;;24.90;74.60;;;;;;5013230;28;20164;-66
2021/08/10 12:06:57;;;;;;;5.35;3.17;;;24.90;76.00;;;;;;5018738;28;20021;-67
2021/08/10 12:09:34;;;;;;;4.90;3.10;;;24.80;74.50;;;;;;5009712;28;20057;-68
2021/08/10 12:12:00;;;;;;;5.65;2.78;;;24.80;74.00;;;;;;5007043;28;20037;-67
2021/08/10 12:14:29;;;;;;;6.22;2.75;;;24.80;74.30;;;;;;5013697;28;20049;-67
2021/08/10 12:16:59;;;;;;;5.63;3.13;;;24.90;74.60;;;;;;5009447;28;20053;-68
2021/08/10 12:19:46;;;;;;;8.45;3.85;;;25.00;72.50;;;;;;4995222;28;20045;-67
2021/08/10 12:22:24;;;;;;;4.85;2.50;;;24.90;71.90;;;;;;5010676;28;20033;-67
2021/08/10 12:24:55;;;;;;;5.85;2.55;;;24.90;71.90;;;;;;5012678;28;20040;-67
2021/08/10 12:27:31;;;;;;;3.40;2.30;;;24.80;71.00;;;;;;5010985;28;20442;-67
2021/08/10 12:29:58;;;;;;;4.15;2.28;;;24.70;70.20;;;;;;5010556;28;20030;-67
2021/08/10 12:32:31;;;;;;;3.40;2.30;;;24.70;70.60;;;;;;5012422;28;20137;-66
2021/08/10 12:35:08;;;;;;;4.07;2.03;;;24.60;72.10;;;;;;5011551;28;20033;-67
2021/08/10 12:37:33;;;;;;;3.50;2.08;;;24.70;72.00;;;;;;5012213;28;20038;-67
2021/08/10 12:40:00;;;;;;;4.88;2.22;;;24.60;71.20;;;;;;5009484;28;20359;-67
2021/08/10 12:42:26;;;;;;;10.48;2.50;;;24.60;71.00;;;;;;4994926;28;20037;-67
2021/08/10 12:44:53;;;;;;;3.50;2.03;;;24.70;70.90;;;;;;4990505;28;21813;-67
2021/08/10 12:47:31;;;;;;;3.38;2.28;;;24.70;70.40;;;;;;4991807;28;20037;-67
2021/08/10 12:49:57;;;;;;;7.18;3.17;;;24.60;69.80;;;;;;4991123;28;20038;-67
2021/08/10 12:52:39;;;;;;;3.00;1.90;;;24.60;72.20;;;;;;4989895;28;20414;-67
2021/08/10 12:55:05;;;;;;;3.33;2.15;;;24.60;70.30;;;;;;4974108;28;20038;-68
2021/08/10 12:57:33;;;;;;;3.80;1.83;;;24.50;69.40;;;;;;4990217;28;20057;-66
2021/08/10 13:00:01;;;;;;;3.60;2.13;;;24.40;69.60;;;;;;4990408;28;20061;-67
2021/08/10 13:02:32;;;;;;;4.15;2.17;;;24.40;70.20;;;;;;4989162;28;20171;-67
2021/08/10 13:04:58;;;;;;;3.70;2.20;;;24.40;70.20;;;;;;4990892;28;20033;-67
2021/08/10 13:07:24;;;;;;;5.50;2.25;;;24.60;69.70;;;;;;4989999;28;20455;-67
2021/08/10 13:10:00;;;;;;;3.40;2.05;;;24.70;70.10;;;;;;4991412;28;20053;-67
2021/08/10 13:12:27;;;;;;;4.45;2.20;;;24.70;68.80;;;;;;4991201;28;20132;-67
2021/08/10 13:15:09;;;;;;;4.30;2.05;;;24.80;68.70;;;;;;4990844;28;20037;-67
2021/08/10 13:17:43;;;;;;;8.00;2.53;;;24.80;68.00;;;;;;4989799;28;20049;-67
2021/08/10 13:20:10;;;;;;;3.78;1.80;;;24.80;67.30;;;;;;4990999;28;20120;-67
2021/08/10 13:22:44;;;;;;;4.40;2.13;;;24.80;68.00;;;;;;4989470;28;20095;-67
2021/08/10 13:25:13;;;;;;;5.57;2.13;;;24.80;68.10;;;;;;4990622;28;20033;-68
2021/08/10 13:27:39;;;;;;;5.97;2.35;;;24.90;67.70;;;;;;4991846;28;20044;-67
2021/08/10 13:30:15;;;;;;;3.78;1.90;;;24.90;67.20;;;;;;4990677;28;20395;-67
2021/08/10 13:32:41;;;;;;;3.05;2.08;;;25.00;68.20;;;;;;4990175;28;20042;-67
2021/08/10 13:35:07;;;;;;;4.50;2.38;;;25.10;67.80;;;;;;4990289;28;20034;-67
2021/08/10 13:37:32;;;;;;;3.85;2.40;;;25.00;67.40;;;;;;4990548;28;20115;-67
2021/08/10 13:39:58;;;;;;;5.13;2.33;;;25.00;67.00;;;;;;4988292;28;20257;-66
2021/08/10 13:42:23;;;;;;;3.13;2.20;;;24.80;67.70;;;;;;4989011;28;20037;-67
2021/08/10 13:44:49;;;;;;;5.28;2.28;;;24.80;68.10;;;;;;4990748;28;20026;-67
2021/08/10 13:47:14;;;;;;;4.00;1.83;;;25.00;69.10;;;;;;4989396;28;20030;-67
2021/08/10 13:49:40;;;;;;;3.75;2.33;;;25.10;68.00;;;;;;4988308;28;20402;-67
2021/08/10 13:52:06;;;;;;;4.88;2.15;;;25.20;67.00;;;;;;4975631;28;20042;-67
2021/08/10 13:54:31;;;;;;;3.75;2.38;;;25.20;66.80;;;;;;4990530;28;20108;-66
2021/08/10 13:56:57;;;;;;;2.80;2.00;;;25.30;66.30;;;;;;4988416;28;20037;-67
2021/08/10 13:59:22;;;;;;;4.22;2.00;;;25.30;65.00;;;;;;4989076;28;20037;-67
2021/08/10 14:01:50;;;;;;;3.25;2.03;;;25.30;65.70;;;;;;4989530;28;20025;-69
2021/08/10 14:04:15;;;;;;;6.53;2.15;;;25.30;65.40;;;;;;4989615;28;20221;-67
2021/08/10 14:06:41;;;;;;;3.88;2.50;;;25.40;65.40;;;;;;4991066;28;20149;-67
2021/08/10 14:09:06;;;;;;;3.42;1.90;;;25.60;65.00;;;;;;4989796;28;20033;-67
2021/08/10 14:11:32;;;;;;;2.80;1.83;;;25.60;64.40;;;;;;4988548;28;20069;-67